sensor_id;sensor_type;location;lat;lon;timestamp;P1;durP1;ratioP1;P2;durP2;ratioP2
72864;SDS011;61000;48.120;11.548;2023-12-20T00:00:19;3.78;;;3.15;;
72864;SDS011;61000;48.120;11.548;2023-12-20T00:02:48;3.55;;;3.22;;
72864;SDS011;61000;48.120;11.548;2023-12-20T00:05:15;2.80;;;2.58;;
72864;SDS011;61000;48.120;11.548;2023-12-20T00:07:42;3.97;;;3.33;;
72864;SDS011;61000;48.120;11.548;2023-12-20T00:10:09;3.17;;;2.78;;
72864;SDS011;61000;48.120;11.548;2023-12-20T00:12:38;3.35;;;2.78;;
72864;SDS011;61000;48.120;11.548;2023-12-20T00:15:06;3.10;;;2.80;;
72864;SDS011;61000;48.120;11.548;2023-12-20T00:17:33;3.45;;;2.70;;
72864;SDS011;61000;48.120;11.548;2023-12-20T00:20:01;5.32;;;3.20;;
72864;SDS011;61000;48.120;11.548;2023-12-20T00:22:28;4.20;;;3.30;;
72864;SDS011;61000;48.120;11.548;2023-12-20T00:24:55;3.08;;;2.72;;
72864;SDS011;61000;48.120;11.548;2023-12-20T00:27:22;3.25;;;2.95;;
72864;SDS011;61000;48.120;11.548;2023-12-20T00:29:49;4.68;;;3.10;;
72864;SDS011;61000;48.120;11.548;2023-12-20T00:32:16;3.05;;;2.75;;
72864;SDS011;61000;48.120;11.548;2023-12-20T00:34:43;3.55;;;2.70;;
72864;SDS011;61000;48.120;11.548;2023-12-20T00:37:11;3.33;;;2.72;;
72864;SDS011;61000;48.120;11.548;2023-12-20T00:39:38;2.72;;;2.53;;
72864;SDS011;61000;48.120;11.548;2023-12-20T00:42:05;2.70;;;2.50;;
72864;SDS011;61000;48.120;11.548;2023-12-20T00:44:32;3.22;;;2.67;;
72864;SDS011;61000;48.120;11.548;2023-12-20T00:46:59;2.60;;;2.40;;
72864;SDS011;61000;48.120;11.548;2023-12-20T00:49:26;4.18;;;2.85;;
72864;SDS011;61000;48.120;11.548;2023-12-20T00:51:53;2.72;;;2.40;;
72864;SDS011;61000;48.120;11.548;2023-12-20T00:54:22;2.42;;;2.15;;
72864;SDS011;61000;48.120;11.548;2023-12-20T00:56:48;2.45;;;2.25;;
72864;SDS011;61000;48.120;11.548;2023-12-20T00:59:16;2.55;;;2.30;;
72864;SDS011;61000;48.120;11.548;2023-12-20T01:01:43;2.35;;;2.00;;
72864;SDS011;61000;48.120;11.548;2023-12-20T01:04:10;2.65;;;2.30;;
72864;SDS011;61000;48.120;11.548;2023-12-20T01:06:37;2.88;;;2.40;;
72864;SDS011;61000;48.120;11.548;2023-12-20T01:09:04;3.03;;;2.60;;
72864;SDS011;61000;48.120;11.548;2023-12-20T01:11:35;2.90;;;2.20;;
72864;SDS011;61000;48.120;11.548;2023-12-20T01:14:02;2.75;;;1.98;;
72864;SDS011;61000;48.120;11.548;2023-12-20T01:16:29;2.70;;;2.47;;
72864;SDS011;61000;48.120;11.548;2023-12-20T01:18:56;2.38;;;2.17;;
72864;SDS011;61000;48.120;11.548;2023-12-20T01:21:23;2.38;;;2.17;;
72864;SDS011;61000;48.120;11.548;2023-12-20T01:23:50;2.75;;;2.10;;
72864;SDS011;61000;48.120;11.548;2023-12-20T01:26:17;2.90;;;2.30;;
72864;SDS011;61000;48.120;11.548;2023-12-20T01:28:45;3.13;;;2.22;;
72864;SDS011;61000;48.120;11.548;2023-12-20T01:31:12;2.05;;;1.95;;
72864;SDS011;61000;48.120;11.548;2023-12-20T01:33:39;2.45;;;2.15;;
72864;SDS011;61000;48.120;11.548;2023-12-20T01:36:06;1.90;;;1.80;;
72864;SDS011;61000;48.120;11.548;2023-12-20T01:38:33;2.13;;;1.92;;
72864;SDS011;61000;48.120;11.548;2023-12-20T01:41:00;1.88;;;1.77;;
72864;SDS011;61000;48.120;11.548;2023-12-20T01:43:27;2.22;;;1.95;;
72864;SDS011;61000;48.120;11.548;2023-12-20T01:45:56;2.40;;;2.20;;
72864;SDS011;61000;48.120;11.548;2023-12-20T01:48:23;2.20;;;2.00;;
72864;SDS011;61000;48.120;11.548;2023-12-20T01:50:51;1.85;;;1.70;;
72864;SDS011;61000;48.120;11.548;2023-12-20T01:53:19;2.65;;;1.75;;
72864;SDS011;61000;48.120;11.548;2023-12-20T01:55:48;2.03;;;1.92;;
72864;SDS011;61000;48.120;11.548;2023-12-20T01:58:18;1.60;;;1.50;;
72864;SDS011;61000;48.120;11.548;2023-12-20T02:00:45;1.65;;;1.55;;
72864;SDS011;61000;48.120;11.548;2023-12-20T02:03:14;1.80;;;1.70;;
72864;SDS011;61000;48.120;11.548;2023-12-20T02:05:42;1.75;;;1.65;;
72864;SDS011;61000;48.120;11.548;2023-12-20T02:08:10;2.42;;;2.05;;
72864;SDS011;61000;48.120;11.548;2023-12-20T02:10:37;1.60;;;1.50;;
72864;SDS011;61000;48.120;11.548;2023-12-20T02:13:05;1.85;;;1.75;;
72864;SDS011;61000;48.120;11.548;2023-12-20T02:15:32;1.80;;;1.70;;
72864;SDS011;61000;48.120;11.548;2023-12-20T02:17:59;1.70;;;1.60;;
72864;SDS011;61000;48.120;11.548;2023-12-20T02:20:27;2.30;;;2.08;;
72864;SDS011;61000;48.120;11.548;2023-12-20T02:22:55;1.92;;;1.73;;
72864;SDS011;61000;48.120;11.548;2023-12-20T02:25:22;3.03;;;1.80;;
72864;SDS011;61000;48.120;11.548;2023-12-20T02:27:49;2.38;;;1.50;;
72864;SDS011;61000;48.120;11.548;2023-12-20T02:30:16;1.65;;;1.55;;
72864;SDS011;61000;48.120;11.548;2023-12-20T02:32:44;1.50;;;1.42;;
72864;SDS011;61000;48.120;11.548;2023-12-20T02:35:10;1.40;;;1.30;;
72864;SDS011;61000;48.120;11.548;2023-12-20T02:37:37;1.38;;;1.27;;
72864;SDS011;61000;48.120;11.548;2023-12-20T02:40:06;1.63;;;1.52;;
72864;SDS011;61000;48.120;11.548;2023-12-20T02:42:33;1.55;;;1.35;;
72864;SDS011;61000;48.120;11.548;2023-12-20T02:45:04;1.30;;;1.20;;
72864;SDS011;61000;48.120;11.548;2023-12-20T02:47:31;1.42;;;1.33;;
72864;SDS011;61000;48.120;11.548;2023-12-20T02:49:58;1.50;;;1.40;;
72864;SDS011;61000;48.120;11.548;2023-12-20T02:52:25;1.02;;;1.02;;
72864;SDS011;61000;48.120;11.548;2023-12-20T02:54:53;2.15;;;1.38;;
72864;SDS011;61000;48.120;11.548;2023-12-20T02:57:22;1.52;;;1.40;;
72864;SDS011;61000;48.120;11.548;2023-12-20T02:59:48;1.40;;;1.30;;
72864;SDS011;61000;48.120;11.548;2023-12-20T03:02:15;1.50;;;1.40;;
72864;SDS011;61000;48.120;11.548;2023-12-20T03:04:42;1.40;;;1.30;;
72864;SDS011;61000;48.120;11.548;2023-12-20T03:07:09;1.45;;;1.35;;
72864;SDS011;61000;48.120;11.548;2023-12-20T03:09:37;1.48;;;1.30;;
72864;SDS011;61000;48.120;11.548;2023-12-20T03:12:04;1.50;;;1.40;;
72864;SDS011;61000;48.120;11.548;2023-12-20T03:14:32;1.42;;;1.33;;
72864;SDS011;61000;48.120;11.548;2023-12-20T03:16:59;1.50;;;1.40;;
72864;SDS011;61000;48.120;11.548;2023-12-20T03:19:26;1.38;;;1.27;;
72864;SDS011;61000;48.120;11.548;2023-12-20T03:21:54;1.33;;;1.30;;
72864;SDS011;61000;48.120;11.548;2023-12-20T03:24:21;1.20;;;1.20;;
72864;SDS011;61000;48.120;11.548;2023-12-20T03:26:48;1.10;;;1.10;;
72864;SDS011;61000;48.120;11.548;2023-12-20T03:29:15;1.10;;;1.10;;
72864;SDS011;61000;48.120;11.548;2023-12-20T03:31:43;1.33;;;1.23;;
72864;SDS011;61000;48.120;11.548;2023-12-20T03:34:10;2.05;;;1.33;;
72864;SDS011;61000;48.120;11.548;2023-12-20T03:36:37;1.38;;;1.27;;
72864;SDS011;61000;48.120;11.548;2023-12-20T03:39:04;1.45;;;1.30;;
72864;SDS011;61000;48.120;11.548;2023-12-20T03:41:31;1.15;;;1.15;;
72864;SDS011;61000;48.120;11.548;2023-12-20T03:43:58;1.17;;;1.17;;
72864;SDS011;61000;48.120;11.548;2023-12-20T03:46:25;1.40;;;1.30;;
72864;SDS011;61000;48.120;11.548;2023-12-20T03:48:53;1.30;;;1.20;;
72864;SDS011;61000;48.120;11.548;2023-12-20T03:51:20;1.20;;;1.17;;
72864;SDS011;61000;48.120;11.548;2023-12-20T03:53:47;1.00;;;1.00;;
72864;SDS011;61000;48.120;11.548;2023-12-20T03:56:14;2.58;;;1.20;;
72864;SDS011;61000;48.120;11.548;2023-12-20T03:58:40;1.20;;;1.15;;
72864;SDS011;61000;48.120;11.548;2023-12-20T04:01:09;1.30;;;1.20;;
72864;SDS011;61000;48.120;11.548;2023-12-20T04:03:37;1.23;;;1.20;;
72864;SDS011;61000;48.120;11.548;2023-12-20T04:06:06;2.70;;;1.30;;
72864;SDS011;61000;48.120;11.548;2023-12-20T04:08:33;0.93;;;0.93;;
72864;SDS011;61000;48.120;11.548;2023-12-20T04:11:00;1.30;;;1.10;;
72864;SDS011;61000;48.120;11.548;2023-12-20T04:13:27;1.23;;;1.00;;
72864;SDS011;61000;48.120;11.548;2023-12-20T04:15:54;1.30;;;1.30;;
72864;SDS011;61000;48.120;11.548;2023-12-20T04:18:21;1.30;;;1.30;;
72864;SDS011;61000;48.120;11.548;2023-12-20T04:20:48;2.15;;;1.45;;
72864;SDS011;61000;48.120;11.548;2023-12-20T04:23:16;1.25;;;1.15;;
72864;SDS011;61000;48.120;11.548;2023-12-20T04:25:43;1.20;;;1.10;;
72864;SDS011;61000;48.120;11.548;2023-12-20T04:30:51;1.20;;;1.20;;
72864;SDS011;61000;48.120;11.548;2023-12-20T04:33:18;1.20;;;1.10;;
72864;SDS011;61000;48.120;11.548;2023-12-20T04:35:44;1.52;;;1.42;;
72864;SDS011;61000;48.120;11.548;2023-12-20T04:38:11;1.50;;;1.40;;
72864;SDS011;61000;48.120;11.548;2023-12-20T04:40:40;1.50;;;1.40;;
72864;SDS011;61000;48.120;11.548;2023-12-20T04:43:07;1.48;;;1.38;;
72864;SDS011;61000;48.120;11.548;2023-12-20T04:45:34;1.45;;;1.35;;
72864;SDS011;61000;48.120;11.548;2023-12-20T04:48:01;1.10;;;1.10;;
72864;SDS011;61000;48.120;11.548;2023-12-20T04:50:29;2.13;;;1.70;;
72864;SDS011;61000;48.120;11.548;2023-12-20T04:52:56;1.92;;;1.40;;
72864;SDS011;61000;48.120;11.548;2023-12-20T04:55:23;1.90;;;1.75;;
72864;SDS011;61000;48.120;11.548;2023-12-20T04:57:51;2.10;;;1.90;;
72864;SDS011;61000;48.120;11.548;2023-12-20T05:00:18;1.95;;;1.85;;
72864;SDS011;61000;48.120;11.548;2023-12-20T05:02:45;2.50;;;2.10;;
72864;SDS011;61000;48.120;11.548;2023-12-20T05:05:12;3.58;;;1.98;;
72864;SDS011;61000;48.120;11.548;2023-12-20T05:07:40;2.05;;;1.95;;
72864;SDS011;61000;48.120;11.548;2023-12-20T05:10:07;2.83;;;2.30;;
72864;SDS011;61000;48.120;11.548;2023-12-20T05:12:35;2.10;;;2.00;;
72864;SDS011;61000;48.120;11.548;2023-12-20T05:15:03;2.83;;;2.60;;
72864;SDS011;61000;48.120;11.548;2023-12-20T05:17:31;2.90;;;2.42;;
72864;SDS011;61000;48.120;11.548;2023-12-20T05:19:58;2.42;;;2.22;;
72864;SDS011;61000;48.120;11.548;2023-12-20T05:22:25;2.17;;;2.08;;
72864;SDS011;61000;48.120;11.548;2023-12-20T05:24:52;2.70;;;2.50;;
72864;SDS011;61000;48.120;11.548;2023-12-20T05:27:19;2.60;;;2.40;;
72864;SDS011;61000;48.120;11.548;2023-12-20T05:29:47;4.10;;;2.50;;
72864;SDS011;61000;48.120;11.548;2023-12-20T05:32:15;2.95;;;2.45;;
72864;SDS011;61000;48.120;11.548;2023-12-20T05:34:42;2.88;;;2.60;;
72864;SDS011;61000;48.120;11.548;2023-12-20T05:37:09;3.83;;;2.80;;
72864;SDS011;61000;48.120;11.548;2023-12-20T05:39:36;3.35;;;2.72;;
72864;SDS011;61000;48.120;11.548;2023-12-20T05:42:03;2.90;;;2.63;;
72864;SDS011;61000;48.120;11.548;2023-12-20T05:44:30;3.42;;;2.60;;
72864;SDS011;61000;48.120;11.548;2023-12-20T05:46:57;2.78;;;2.15;;
72864;SDS011;61000;48.120;11.548;2023-12-20T05:49:26;3.80;;;2.40;;
72864;SDS011;61000;48.120;11.548;2023-12-20T05:51:52;3.58;;;2.67;;
72864;SDS011;61000;48.120;11.548;2023-12-20T05:54:19;2.53;;;2.33;;
72864;SDS011;61000;48.120;11.548;2023-12-20T05:56:46;2.58;;;2.35;;
72864;SDS011;61000;48.120;11.548;2023-12-20T05:59:13;2.70;;;2.50;;
72864;SDS011;61000;48.120;11.548;2023-12-20T06:01:40;2.75;;;2.50;;
72864;SDS011;61000;48.120;11.548;2023-12-20T06:04:07;2.53;;;2.30;;
72864;SDS011;61000;48.120;11.548;2023-12-20T06:06:39;2.33;;;2.13;;
72864;SDS011;61000;48.120;11.548;2023-12-20T06:09:07;2.55;;;2.35;;
72864;SDS011;61000;48.120;11.548;2023-12-20T06:11:34;2.85;;;2.42;;
72864;SDS011;61000;48.120;11.548;2023-12-20T06:14:01;3.72;;;2.75;;
72864;SDS011;61000;48.120;11.548;2023-12-20T06:16:27;2.97;;;2.67;;
72864;SDS011;61000;48.120;11.548;2023-12-20T06:18:54;2.60;;;2.40;;
72864;SDS011;61000;48.120;11.548;2023-12-20T06:21:21;2.42;;;2.22;;
72864;SDS011;61000;48.120;11.548;2023-12-20T06:23:49;2.25;;;2.05;;
72864;SDS011;61000;48.120;11.548;2023-12-20T06:26:16;2.65;;;2.45;;
72864;SDS011;61000;48.120;11.548;2023-12-20T06:28:43;2.40;;;2.20;;
72864;SDS011;61000;48.120;11.548;2023-12-20T06:31:10;3.35;;;2.30;;
72864;SDS011;61000;48.120;11.548;2023-12-20T06:33:37;2.92;;;2.58;;
72864;SDS011;61000;48.120;11.548;2023-12-20T06:36:06;2.58;;;2.35;;
72864;SDS011;61000;48.120;11.548;2023-12-20T06:38:33;2.53;;;2.33;;
72864;SDS011;61000;48.120;11.548;2023-12-20T06:41:01;2.78;;;2.58;;
72864;SDS011;61000;48.120;11.548;2023-12-20T06:43:28;2.83;;;2.53;;
72864;SDS011;61000;48.120;11.548;2023-12-20T06:45:56;3.90;;;2.40;;
72864;SDS011;61000;48.120;11.548;2023-12-20T06:48:23;2.60;;;2.28;;
72864;SDS011;61000;48.120;11.548;2023-12-20T06:50:50;3.70;;;2.25;;
72864;SDS011;61000;48.120;11.548;2023-12-20T06:53:17;4.07;;;2.40;;
72864;SDS011;61000;48.120;11.548;2023-12-20T06:55:44;2.40;;;2.20;;
72864;SDS011;61000;48.120;11.548;2023-12-20T06:58:12;2.45;;;2.25;;
72864;SDS011;61000;48.120;11.548;2023-12-20T07:00:39;2.40;;;2.20;;
72864;SDS011;61000;48.120;11.548;2023-12-20T07:03:08;2.70;;;2.47;;
72864;SDS011;61000;48.120;11.548;2023-12-20T07:05:35;2.58;;;2.25;;
72864;SDS011;61000;48.120;11.548;2023-12-20T07:08:03;2.33;;;2.13;;
72864;SDS011;61000;48.120;11.548;2023-12-20T07:10:30;2.55;;;2.35;;
72864;SDS011;61000;48.120;11.548;2023-12-20T07:12:57;2.45;;;2.25;;
72864;SDS011;61000;48.120;11.548;2023-12-20T07:15:35;2.00;;;1.88;;
72864;SDS011;61000;48.120;11.548;2023-12-20T07:18:13;2.10;;;1.98;;
72864;SDS011;61000;48.120;11.548;2023-12-20T07:21:02;2.00;;;1.90;;
72864;SDS011;61000;48.120;11.548;2023-12-20T07:23:30;3.20;;;1.90;;
72864;SDS011;61000;48.120;11.548;2023-12-20T07:25:56;2.40;;;2.20;;
72864;SDS011;61000;48.120;11.548;2023-12-20T07:28:23;3.63;;;2.80;;
72864;SDS011;61000;48.120;11.548;2023-12-20T07:30:52;3.08;;;2.78;;
72864;SDS011;61000;48.120;11.548;2023-12-20T07:33:19;2.10;;;2.00;;
72864;SDS011;61000;48.120;11.548;2023-12-20T07:35:45;2.00;;;1.90;;
72864;SDS011;61000;48.120;11.548;2023-12-20T07:38:17;1.92;;;1.80;;
72864;SDS011;61000;48.120;11.548;2023-12-20T07:40:44;2.55;;;2.35;;
72864;SDS011;61000;48.120;11.548;2023-12-20T07:43:10;1.73;;;1.63;;
72864;SDS011;61000;48.120;11.548;2023-12-20T07:45:37;2.65;;;2.45;;
72864;SDS011;61000;48.120;11.548;2023-12-20T07:48:07;2.95;;;2.58;;
72864;SDS011;61000;48.120;11.548;2023-12-20T07:50:34;2.35;;;2.15;;
72864;SDS011;61000;48.120;11.548;2023-12-20T07:53:00;2.50;;;2.30;;
72864;SDS011;61000;48.120;11.548;2023-12-20T07:55:28;6.40;;;4.50;;
72864;SDS011;61000;48.120;11.548;2023-12-20T07:57:56;2.90;;;2.60;;
72864;SDS011;61000;48.120;11.548;2023-12-20T08:00:23;3.78;;;3.05;;
72864;SDS011;61000;48.120;11.548;2023-12-20T08:02:50;2.70;;;2.50;;
72864;SDS011;61000;48.120;11.548;2023-12-20T08:05:18;3.35;;;3.08;;
72864;SDS011;61000;48.120;11.548;2023-12-20T08:07:45;2.20;;;2.00;;
72864;SDS011;61000;48.120;11.548;2023-12-20T08:10:12;2.13;;;1.95;;
72864;SDS011;61000;48.120;11.548;2023-12-20T08:12:46;2.83;;;2.50;;
72864;SDS011;61000;48.120;11.548;2023-12-20T08:15:13;3.17;;;2.65;;
72864;SDS011;61000;48.120;11.548;2023-12-20T08:17:40;4.80;;;2.65;;
72864;SDS011;61000;48.120;11.548;2023-12-20T08:20:07;3.65;;;3.30;;
72864;SDS011;61000;48.120;11.548;2023-12-20T08:22:35;2.40;;;2.20;;
72864;SDS011;61000;48.120;11.548;2023-12-20T08:25:05;3.25;;;2.70;;
72864;SDS011;61000;48.120;11.548;2023-12-20T08:27:38;4.82;;;4.22;;
72864;SDS011;61000;48.120;11.548;2023-12-20T08:32:47;2.60;;;2.40;;
72864;SDS011;61000;48.120;11.548;2023-12-20T08:35:13;1.67;;;1.58;;
72864;SDS011;61000;48.120;11.548;2023-12-20T08:37:42;2.10;;;2.00;;
72864;SDS011;61000;48.120;11.548;2023-12-20T08:40:09;2.03;;;1.92;;
72864;SDS011;61000;48.120;11.548;2023-12-20T08:42:36;2.85;;;1.60;;
72864;SDS011;61000;48.120;11.548;2023-12-20T08:45:04;2.85;;;1.60;;
72864;SDS011;61000;48.120;11.548;2023-12-20T08:47:31;2.17;;;1.90;;
72864;SDS011;61000;48.120;11.548;2023-12-20T08:49:58;1.98;;;1.88;;
72864;SDS011;61000;48.120;11.548;2023-12-20T08:52:26;1.40;;;1.38;;
72864;SDS011;61000;48.120;11.548;2023-12-20T08:54:55;1.85;;;1.75;;
72864;SDS011;61000;48.120;11.548;2023-12-20T08:57:22;1.95;;;1.83;;
72864;SDS011;61000;48.120;11.548;2023-12-20T08:59:50;1.90;;;1.80;;
72864;SDS011;61000;48.120;11.548;2023-12-20T09:02:17;1.45;;;1.40;;
72864;SDS011;61000;48.120;11.548;2023-12-20T09:04:44;2.33;;;1.80;;
72864;SDS011;61000;48.120;11.548;2023-12-20T09:07:20;1.70;;;1.60;;
72864;SDS011;61000;48.120;11.548;2023-12-20T09:09:48;1.80;;;1.70;;
72864;SDS011;61000;48.120;11.548;2023-12-20T09:12:16;1.30;;;1.30;;
72864;SDS011;61000;48.120;11.548;2023-12-20T09:14:43;1.50;;;1.50;;
72864;SDS011;61000;48.120;11.548;2023-12-20T09:17:10;1.58;;;1.38;;
72864;SDS011;61000;48.120;11.548;2023-12-20T09:19:38;1.80;;;1.70;;
72864;SDS011;61000;48.120;11.548;2023-12-20T09:22:05;1.73;;;1.63;;
72864;SDS011;61000;48.120;11.548;2023-12-20T09:24:32;1.75;;;1.60;;
72864;SDS011;61000;48.120;11.548;2023-12-20T09:26:59;1.92;;;1.83;;
72864;SDS011;61000;48.120;11.548;2023-12-20T09:29:27;1.40;;;1.30;;
72864;SDS011;61000;48.120;11.548;2023-12-20T09:31:54;1.60;;;1.50;;
72864;SDS011;61000;48.120;11.548;2023-12-20T09:34:22;1.77;;;1.67;;
72864;SDS011;61000;48.120;11.548;2023-12-20T09:36:51;1.90;;;1.80;;
72864;SDS011;61000;48.120;11.548;2023-12-20T09:39:20;1.98;;;1.88;;
72864;SDS011;61000;48.120;11.548;2023-12-20T09:41:49;1.80;;;1.70;;
72864;SDS011;61000;48.120;11.548;2023-12-20T09:44:30;2.92;;;2.17;;
72864;SDS011;61000;48.120;11.548;2023-12-20T09:47:00;1.77;;;1.67;;
72864;SDS011;61000;48.120;11.548;2023-12-20T09:49:36;1.80;;;1.70;;
72864;SDS011;61000;48.120;11.548;2023-12-20T09:52:04;1.90;;;1.70;;
72864;SDS011;61000;48.120;11.548;2023-12-20T09:54:36;1.73;;;1.63;;
72864;SDS011;61000;48.120;11.548;2023-12-20T09:57:06;2.35;;;1.58;;
72864;SDS011;61000;48.120;11.548;2023-12-20T09:59:36;1.52;;;1.48;;
72864;SDS011;61000;48.120;11.548;2023-12-20T10:02:05;1.80;;;1.70;;
72864;SDS011;61000;48.120;11.548;2023-12-20T10:04:39;1.77;;;1.67;;
72864;SDS011;61000;48.120;11.548;2023-12-20T10:07:12;2.40;;;2.20;;
72864;SDS011;61000;48.120;11.548;2023-12-20T10:09:39;2.30;;;2.10;;
72864;SDS011;61000;48.120;11.548;2023-12-20T10:12:08;2.20;;;2.00;;
72864;SDS011;61000;48.120;11.548;2023-12-20T10:14:37;1.83;;;1.73;;
72864;SDS011;61000;48.120;11.548;2023-12-20T10:17:06;1.88;;;1.77;;
72864;SDS011;61000;48.120;11.548;2023-12-20T10:19:34;2.03;;;1.92;;
72864;SDS011;61000;48.120;11.548;2023-12-20T10:22:01;2.88;;;1.70;;
72864;SDS011;61000;48.120;11.548;2023-12-20T10:24:30;3.35;;;1.70;;
72864;SDS011;61000;48.120;11.548;2023-12-20T10:27:03;2.10;;;1.98;;
72864;SDS011;61000;48.120;11.548;2023-12-20T10:29:32;2.00;;;1.90;;
72864;SDS011;61000;48.120;11.548;2023-12-20T10:32:00;1.75;;;1.60;;
72864;SDS011;61000;48.120;11.548;2023-12-20T10:34:47;1.70;;;1.60;;
72864;SDS011;61000;48.120;11.548;2023-12-20T10:37:17;2.15;;;1.92;;
72864;SDS011;61000;48.120;11.548;2023-12-20T10:39:49;3.40;;;2.55;;
72864;SDS011;61000;48.120;11.548;2023-12-20T10:42:26;1.92;;;1.70;;
72864;SDS011;61000;48.120;11.548;2023-12-20T10:44:53;2.70;;;1.95;;
72864;SDS011;61000;48.120;11.548;2023-12-20T10:47:21;2.97;;;1.73;;
72864;SDS011;61000;48.120;11.548;2023-12-20T10:49:50;1.95;;;1.80;;
72864;SDS011;61000;48.120;11.548;2023-12-20T10:52:18;1.80;;;1.67;;
72864;SDS011;61000;48.120;11.548;2023-12-20T10:54:49;1.50;;;1.50;;
72864;SDS011;61000;48.120;11.548;2023-12-20T10:57:16;1.60;;;1.52;;
72864;SDS011;61000;48.120;11.548;2023-12-20T10:59:45;2.03;;;1.77;;
72864;SDS011;61000;48.120;11.548;2023-12-20T11:02:15;1.90;;;1.80;;
72864;SDS011;61000;48.120;11.548;2023-12-20T11:04:44;2.15;;;1.90;;
72864;SDS011;61000;48.120;11.548;2023-12-20T11:07:19;2.00;;;1.85;;
72864;SDS011;61000;48.120;11.548;2023-12-20T11:09:54;1.85;;;1.70;;
72864;SDS011;61000;48.120;11.548;2023-12-20T11:12:28;2.05;;;1.95;;
72864;SDS011;61000;48.120;11.548;2023-12-20T11:15:01;1.88;;;1.77;;
72864;SDS011;61000;48.120;11.548;2023-12-20T11:17:31;4.15;;;3.17;;
72864;SDS011;61000;48.120;11.548;2023-12-20T11:20:10;2.15;;;2.05;;
72864;SDS011;61000;48.120;11.548;2023-12-20T11:22:37;2.38;;;2.17;;
72864;SDS011;61000;48.120;11.548;2023-12-20T11:25:07;2.05;;;1.95;;
72864;SDS011;61000;48.120;11.548;2023-12-20T11:27:35;2.15;;;2.03;;
72864;SDS011;61000;48.120;11.548;2023-12-20T11:30:03;3.95;;;2.67;;
72864;SDS011;61000;48.120;11.548;2023-12-20T11:32:34;3.40;;;2.90;;
72864;SDS011;61000;48.120;11.548;2023-12-20T11:48:19;4.28;;;3.88;;
72864;SDS011;61000;48.120;11.548;2023-12-20T11:50:46;3.15;;;2.95;;
72864;SDS011;61000;48.120;11.548;2023-12-20T11:53:13;3.40;;;3.10;;
72864;SDS011;61000;48.120;11.548;2023-12-20T11:55:40;7.85;;;5.05;;
72864;SDS011;61000;48.120;11.548;2023-12-20T11:58:07;6.35;;;4.22;;
72864;SDS011;61000;48.120;11.548;2023-12-20T12:00:34;3.50;;;3.20;;
72864;SDS011;61000;48.120;11.548;2023-12-20T12:03:02;3.28;;;2.97;;
72864;SDS011;61000;48.120;11.548;2023-12-20T12:05:31;2.35;;;2.25;;
72864;SDS011;61000;48.120;11.548;2023-12-20T12:07:58;4.53;;;3.20;;
72864;SDS011;61000;48.120;11.548;2023-12-20T12:10:25;2.63;;;2.47;;
72864;SDS011;61000;48.120;11.548;2023-12-20T12:12:52;2.80;;;2.60;;
72864;SDS011;61000;48.120;11.548;2023-12-20T12:15:19;3.28;;;3.08;;
72864;SDS011;61000;48.120;11.548;2023-12-20T12:17:52;2.80;;;2.40;;
72864;SDS011;61000;48.120;11.548;2023-12-20T12:20:20;4.57;;;2.45;;
72864;SDS011;61000;48.120;11.548;2023-12-20T12:22:51;3.90;;;2.60;;
72864;SDS011;61000;48.120;11.548;2023-12-20T12:25:24;3.22;;;2.88;;
72864;SDS011;61000;48.120;11.548;2023-12-20T12:27:51;3.53;;;3.22;;
72864;SDS011;61000;48.120;11.548;2023-12-20T12:30:18;3.92;;;3.25;;
72864;SDS011;61000;48.120;11.548;2023-12-20T12:32:45;2.35;;;2.13;;
72864;SDS011;61000;48.120;11.548;2023-12-20T12:35:13;4.82;;;3.00;;
72864;SDS011;61000;48.120;11.548;2023-12-20T12:37:46;2.63;;;2.42;;
72864;SDS011;61000;48.120;11.548;2023-12-20T12:40:17;3.88;;;3.47;;
72864;SDS011;61000;48.120;11.548;2023-12-20T12:42:51;4.07;;;3.67;;
72864;SDS011;61000;48.120;11.548;2023-12-20T12:45:35;2.67;;;2.47;;
72864;SDS011;61000;48.120;11.548;2023-12-20T12:48:31;3.20;;;2.90;;
72864;SDS011;61000;48.120;11.548;2023-12-20T12:51:05;2.50;;;2.30;;
72864;SDS011;61000;48.120;11.548;2023-12-20T12:53:37;3.50;;;3.20;;
72864;SDS011;61000;48.120;11.548;2023-12-20T12:56:06;4.60;;;3.72;;
72864;SDS011;61000;48.120;11.548;2023-12-20T12:58:33;3.38;;;3.03;;
72864;SDS011;61000;48.120;11.548;2023-12-20T13:01:00;3.17;;;2.70;;
72864;SDS011;61000;48.120;11.548;2023-12-20T13:03:28;3.88;;;3.22;;
72864;SDS011;61000;48.120;11.548;2023-12-20T13:05:55;3.28;;;2.97;;
72864;SDS011;61000;48.120;11.548;2023-12-20T13:08:22;4.28;;;3.63;;
72864;SDS011;61000;48.120;11.548;2023-12-20T13:10:49;3.63;;;2.80;;
72864;SDS011;61000;48.120;11.548;2023-12-20T13:13:17;3.10;;;2.78;;
72864;SDS011;61000;48.120;11.548;2023-12-20T13:15:44;3.95;;;2.90;;
72864;SDS011;61000;48.120;11.548;2023-12-20T13:18:16;4.13;;;2.90;;
72864;SDS011;61000;48.120;11.548;2023-12-20T13:20:43;3.60;;;3.13;;
72864;SDS011;61000;48.120;11.548;2023-12-20T13:23:10;2.90;;;2.70;;
72864;SDS011;61000;48.120;11.548;2023-12-20T13:25:37;4.72;;;3.08;;
72864;SDS011;61000;48.120;11.548;2023-12-20T13:28:04;3.72;;;3.40;;
72864;SDS011;61000;48.120;11.548;2023-12-20T13:30:33;2.90;;;2.70;;
72864;SDS011;61000;48.120;11.548;2023-12-20T13:33:00;3.33;;;3.03;;
72864;SDS011;61000;48.120;11.548;2023-12-20T13:35:27;5.03;;;2.63;;
72864;SDS011;61000;48.120;11.548;2023-12-20T13:37:54;3.08;;;2.88;;
72864;SDS011;61000;48.120;11.548;2023-12-20T13:40:22;3.10;;;2.90;;
72864;SDS011;61000;48.120;11.548;2023-12-20T13:42:49;3.05;;;2.50;;
72864;SDS011;61000;48.120;11.548;2023-12-20T13:45:15;4.20;;;2.90;;
72864;SDS011;61000;48.120;11.548;2023-12-20T13:47:44;4.13;;;2.90;;
72864;SDS011;61000;48.120;11.548;2023-12-20T13:50:11;4.00;;;3.05;;
72864;SDS011;61000;48.120;11.548;2023-12-20T13:52:38;3.75;;;3.38;;
72864;SDS011;61000;48.120;11.548;2023-12-20T13:55:05;4.28;;;3.70;;
72864;SDS011;61000;48.120;11.548;2023-12-20T13:57:33;7.22;;;4.18;;
72864;SDS011;61000;48.120;11.548;2023-12-20T14:00:03;4.40;;;3.63;;
72864;SDS011;61000;48.120;11.548;2023-12-20T14:02:32;3.50;;;3.00;;
72864;SDS011;61000;48.120;11.548;2023-12-20T14:05:00;5.40;;;3.50;;
72864;SDS011;61000;48.120;11.548;2023-12-20T14:07:27;4.80;;;3.03;;
72864;SDS011;61000;48.120;11.548;2023-12-20T14:09:57;3.60;;;3.30;;
72864;SDS011;61000;48.120;11.548;2023-12-20T14:12:29;8.02;;;3.08;;
72864;SDS011;61000;48.120;11.548;2023-12-20T14:14:57;4.85;;;3.13;;
72864;SDS011;61000;48.120;11.548;2023-12-20T14:17:24;3.75;;;3.28;;
72864;SDS011;61000;48.120;11.548;2023-12-20T14:19:51;4.55;;;4.15;;
72864;SDS011;61000;48.120;11.548;2023-12-20T14:22:21;5.55;;;3.63;;
72864;SDS011;61000;48.120;11.548;2023-12-20T14:24:49;4.65;;;3.25;;
72864;SDS011;61000;48.120;11.548;2023-12-20T14:27:16;4.50;;;2.50;;
72864;SDS011;61000;48.120;11.548;2023-12-20T14:29:46;5.15;;;3.33;;
72864;SDS011;61000;48.120;11.548;2023-12-20T14:32:13;8.98;;;3.90;;
72864;SDS011;61000;48.120;11.548;2023-12-20T14:34:41;4.43;;;3.35;;
72864;SDS011;61000;48.120;11.548;2023-12-20T14:37:08;3.08;;;2.63;;
72864;SDS011;61000;48.120;11.548;2023-12-20T14:39:36;5.50;;;3.72;;
72864;SDS011;61000;48.120;11.548;2023-12-20T14:42:06;6.50;;;3.58;;
72864;SDS011;61000;48.120;11.548;2023-12-20T14:44:36;3.22;;;3.00;;
72864;SDS011;61000;48.120;11.548;2023-12-20T14:47:03;5.18;;;2.80;;
72864;SDS011;61000;48.120;11.548;2023-12-20T14:49:30;4.10;;;3.08;;
72864;SDS011;61000;48.120;11.548;2023-12-20T14:51:57;7.68;;;3.20;;
72864;SDS011;61000;48.120;11.548;2023-12-20T14:54:25;4.68;;;3.03;;
72864;SDS011;61000;48.120;11.548;2023-12-20T14:56:53;4.30;;;2.80;;